Watrous, NM (87750)

4:38 AM MDT on September 17, 2014 (GMT -0600)
Las Vegas Municipal | Change Station
CLOSE
Current Station
Airport
Location: Las Vegas,
Elevation: 6877 ft
Nearby Weather Stations

Elev 6877 ft 35.65 °N, 105.14 °W | Updated 45 minutes ago

Partly Cloudy
Partly Cloudy
51 °F
Feels Like 51 °F
N
4
Wind Variable Wind from NE

Today
High -- | Low -- °F
--% Chance of Precip.
Yesterday
High -- | Low -- °F
Precip. -- in
6:44 AM 7:04 PM
Last Quarter, 37% visible
Pressure 29.94 in
Visibility 10.0 miles
Clouds Clear
Dew Point 47 °F
Humidity 86%
Rainfall 0.00 in
Snow Depth 0 in , 0 in , 0 in
UV 0 out of 12
Pollen 5.90 out of 12
Air Quality Not available.
Flu Activity Not available.
METAR KLVS 170953Z AUTO 04003KT 10SM CLR 11/08 A3023 RMK AO2 SLP136 T01060083

More Conditions Fewer Conditions

Pressure 29.94 in
Visibility 10.0 miles
Clouds Clear
Dew Point 47 °F
Humidity 86%
Rainfall 0.00 in
Snow Depth 0 in , 0 in , 0 in
UV 0 out of 12
Pollen 5.90 out of 12
Air Quality Not available.
Flu Activity Not available.
METAR KLVS 170953Z AUTO 04003KT 10SM CLR 11/08 A3023 RMK AO2 SLP136 T01060083

More Conditions Fewer Conditions

10-Day Weather Forecast

Almanac

Astronomy

Sep. 17, 2014 Rise Set
Actual Time 6:44 AM MDT 7:04 PM MDT
Civil Twilight 6:18 AM MDT 7:29 PM MDT
Nautical Twilight 5:48 AM MDT 7:59 PM MDT
Astronomical Twilight 5:17 AM MDT 8:29 PM MDT
Moon 12:54 AM MDT 3:07 PM MDT
Length of Visible Light 13h 11m
Length of Day
12h 19m
Tomorrow will be 2m 15s shorter.
Last Quarter, 37% of the Moon is Illuminated
Today
Last Quarter
Sep 24
New
Oct 1
First Quarter
Oct 8
Full
Oct 15
Last Quarter

Today's Extremes

State Highs State Lows

Community

WunderPhotos

Upload Photos

1,753,993 photos uploaded!

Nearby

Snow Depth

Station Depth Elevation
Hopewell 0 in 10000 ft
Senorita Divide #2 0 in 8600 ft
Bateman 0 in 9300 ft
Wesner Springs 3 in 11120 ft
Rice Park 0 in 8460 ft

Earthquake Activity

City Distance Mag. Time & Date
No recent earthquake activity has been reported nearby.
Minimum magnitude displayed is 2.5.

Coastal Water Temperatures

Place Temperature
No Stations Reporting

Nearby Weather Stations